Time;durP1;ratioP1;P1;durP2;ratioP2;P2;SDS_P1;SDS_P2;PMS_P1;PMS_P2;Temp;Humidity;BMP_temperature;BMP_pressure;BME280_temperature;BME280_humidity;BME280_pressure;Samples;Min_cycle;Max_cycle;Signal;HPM_P1;HPM_P2
2022/03/30 00:01:10;;;;;;;29.40;13.70;;;5.70;99.90;;;;;;5092858;28;20127;-69
2022/03/30 00:03:36;;;;;;;32.47;13.43;;;5.70;99.90;;;;;;5094338;28;20060;-69
2022/03/30 00:06:05;;;;;;;27.50;14.23;;;5.70;99.90;;;;;;5094220;28;20121;-69
2022/03/30 00:08:31;;;;;;;27.85;12.68;;;5.80;99.90;;;;;;5093658;28;20373;-69
2022/03/30 00:10:57;;;;;;;28.20;12.80;;;5.80;99.90;;;;;;5094489;28;20392;-70
2022/03/30 00:13:23;;;;;;;23.35;10.63;;;5.80;99.90;;;;;;5093611;28;20058;-69
2022/03/30 00:15:49;;;;;;;20.50;9.60;;;5.80;99.90;;;;;;5092388;28;20044;-69
2022/03/30 00:18:15;;;;;;;17.92;10.68;;;5.80;99.90;;;;;;5093575;28;20047;-70
2022/03/30 00:20:41;;;;;;;17.30;9.07;;;5.80;99.90;;;;;;5093815;28;20139;-70
2022/03/30 00:23:07;;;;;;;20.05;9.80;;;5.80;99.90;;;;;;5093599;28;20146;-70
2022/03/30 00:25:33;;;;;;;17.65;9.60;;;5.90;99.90;;;;;;5093538;28;20044;-69
2022/03/30 00:27:59;;;;;;;18.20;10.38;;;5.90;99.90;;;;;;5093508;28;20051;-69
2022/03/30 00:30:24;;;;;;;18.88;9.23;;;5.70;99.90;;;;;;5093748;28;20479;-69
2022/03/30 00:32:50;;;;;;;18.67;9.38;;;5.80;99.90;;;;;;5093494;28;20173;-69
2022/03/30 00:35:16;;;;;;;22.20;10.30;;;5.60;99.90;;;;;;5093381;28;20384;-69
2022/03/30 00:37:42;;;;;;;18.23;10.20;;;5.70;99.90;;;;;;5093666;28;20486;-69
2022/03/30 00:40:11;;;;;;;19.10;10.10;;;5.70;99.90;;;;;;5092332;28;20121;-69
2022/03/30 00:42:37;;;;;;;21.38;9.80;;;5.60;99.90;;;;;;5093450;28;20050;-70
2022/03/30 00:45:11;;;;;;;21.20;10.65;;;5.60;99.90;;;;;;5093763;28;20036;-69
2022/03/30 00:47:37;;;;;;;19.38;10.15;;;5.60;99.90;;;;;;5093180;28;20123;-69
2022/03/30 00:50:06;;;;;;;20.77;9.70;;;5.60;99.90;;;;;;5092117;28;20411;-69
2022/03/30 00:52:32;;;;;;;21.23;10.50;;;5.60;99.90;;;;;;5093072;28;20468;-69
2022/03/30 00:54:58;;;;;;;19.45;10.25;;;5.50;99.90;;;;;;5093178;28;20044;-69
2022/03/30 00:57:24;;;;;;;19.17;10.23;;;5.50;99.90;;;;;;5093220;28;20377;-69
2022/03/30 00:59:50;;;;;;;20.70;9.80;;;5.40;99.90;;;;;;5094023;28;20376;-69
2022/03/30 01:02:18;;;;;;;25.02;10.10;;;5.40;99.90;;;;;;5092074;28;20063;-69
2022/03/30 01:04:47;;;;;;;20.33;10.27;;;5.50;99.90;;;;;;5093130;28;20052;-70
2022/03/30 01:07:14;;;;;;;18.20;10.10;;;5.40;99.90;;;;;;5093134;28;20056;-69
2022/03/30 01:09:40;;;;;;;18.70;9.85;;;5.60;99.90;;;;;;5092506;28;20036;-69
2022/03/30 01:12:08;;;;;;;21.05;10.48;;;5.40;99.90;;;;;;5095927;28;20403;-69
2022/03/30 01:14:34;;;;;;;20.27;10.10;;;5.40;99.90;;;;;;5095562;28;20075;-69
2022/03/30 01:17:00;;;;;;;19.10;10.55;;;5.40;99.90;;;;;;5095582;28;20047;-69
2022/03/30 01:19:31;;;;;;;20.30;10.02;;;5.40;99.90;;;;;;5096525;28;20044;-69
2022/03/30 01:21:57;;;;;;;23.95;10.85;;;5.40;99.90;;;;;;5096450;28;20514;-69
2022/03/30 01:24:22;;;;;;;21.77;10.75;;;5.50;99.90;;;;;;5096493;28;20358;-69
2022/03/30 01:26:48;;;;;;;19.20;10.82;;;5.40;99.90;;;;;;5095483;28;20051;-69
2022/03/30 01:34:43;;;;;;;20.90;10.32;;;5.50;99.90;;;;;;5096703;28;20051;-69
2022/03/30 01:37:11;;;;;;;20.90;10.60;;;5.30;99.90;;;;;;5096497;28;20048;-69
2022/03/30 01:39:37;;;;;;;20.35;10.32;;;5.50;99.90;;;;;;5096465;28;20048;-69
2022/03/30 01:42:04;;;;;;;19.08;10.60;;;5.30;99.90;;;;;;5095385;28;20052;-69
2022/03/30 01:44:30;;;;;;;18.85;9.80;;;5.30;99.90;;;;;;5096293;28;20044;-68
2022/03/30 01:46:56;;;;;;;21.50;9.57;;;5.40;99.90;;;;;;5096273;28;20079;-69
2022/03/30 01:49:21;;;;;;;19.05;8.55;;;5.40;99.90;;;;;;5097076;28;20044;-69
2022/03/30 01:51:52;;;;;;;20.17;9.57;;;5.40;99.90;;;;;;5096114;28;20044;-69
2022/03/30 01:54:20;;;;;;;20.98;10.30;;;5.40;99.90;;;;;;5096182;28;20048;-69
2022/03/30 01:56:47;;;;;;;20.75;9.68;;;5.40;99.90;;;;;;5094917;28;20130;-68
2022/03/30 01:59:13;;;;;;;18.50;9.80;;;5.50;99.90;;;;;;5096020;28;20052;-69
2022/03/30 02:01:41;;;;;;;18.20;9.40;;;5.50;99.90;;;;;;5094766;28;20084;-69
2022/03/30 02:04:07;;;;;;;20.08;9.40;;;5.70;99.90;;;;;;5096540;28;20048;-69
2022/03/30 02:06:33;;;;;;;16.75;8.95;;;5.60;99.90;;;;;;5095899;28;20051;-69
2022/03/30 02:09:00;;;;;;;17.55;8.70;;;5.60;99.90;;;;;;5094966;28;20051;-69
2022/03/30 02:11:26;;;;;;;19.83;10.65;;;5.60;99.90;;;;;;5095964;28;20421;-69
2022/03/30 02:13:52;;;;;;;19.00;8.85;;;5.60;99.90;;;;;;5095854;28;20048;-69
2022/03/30 02:16:19;;;;;;;18.13;8.48;;;6.40;99.90;;;;;;5095723;28;20462;-69
2022/03/30 02:18:46;;;;;;;18.98;9.05;;;5.70;99.90;;;;;;5094639;28;20135;-69
2022/03/30 02:21:11;;;;;;;18.15;9.50;;;5.70;99.90;;;;;;5095490;28;20071;-69
2022/03/30 02:23:38;;;;;;;21.48;8.70;;;5.70;99.90;;;;;;5093984;28;20043;-69
2022/03/30 02:26:03;;;;;;;19.58;9.68;;;5.80;99.90;;;;;;5095517;28;20048;-69
2022/03/30 02:28:29;;;;;;;17.00;8.60;;;5.80;99.90;;;;;;5095429;28;20177;-69
2022/03/30 02:30:55;;;;;;;18.17;8.57;;;5.80;99.90;;;;;;5095492;28;20048;-68
2022/03/30 02:33:21;;;;;;;16.10;8.40;;;5.80;99.90;;;;;;5095355;28;20559;-70
2022/03/30 02:35:47;;;;;;;18.60;8.73;;;5.70;99.90;;;;;;5095266;28;20123;-69
2022/03/30 02:38:12;;;;;;;17.33;8.50;;;5.80;99.90;;;;;;5095551;28;20400;-69
2022/03/30 02:40:38;;;;;;;22.77;8.38;;;5.80;99.90;;;;;;5095251;28;20040;-69
2022/03/30 02:43:04;;;;;;;17.75;8.02;;;5.80;99.90;;;;;;5094222;28;20044;-69
2022/03/30 02:45:30;;;;;;;22.55;9.27;;;5.80;99.90;;;;;;5094053;28;20589;-69
2022/03/30 02:50:40;;;;;;;19.42;8.35;;;5.70;99.90;;;;;;5094397;28;20055;-69
2022/03/30 02:53:06;;;;;;;20.83;8.85;;;5.50;99.90;;;;;;5093908;28;20139;-69
2022/03/30 02:55:32;;;;;;;17.52;9.02;;;5.70;99.90;;;;;;5093676;28;20130;-69
2022/03/30 02:57:58;;;;;;;20.98;8.98;;;5.70;99.90;;;;;;5093721;28;20472;-70
2022/03/30 03:00:23;;;;;;;18.85;9.02;;;6.00;99.90;;;;;;5094526;28;20044;-70
2022/03/30 03:02:49;;;;;;;18.35;9.52;;;5.70;99.90;;;;;;5094879;28;20101;-70
2022/03/30 03:05:15;;;;;;;20.13;9.32;;;5.60;99.90;;;;;;5095287;28;20048;-70
2022/03/30 03:07:41;;;;;;;17.75;9.48;;;5.60;99.90;;;;;;5093489;28;20073;-69
2022/03/30 03:10:09;;;;;;;22.45;9.88;;;5.60;99.90;;;;;;5094356;28;20540;-70
2022/03/30 03:12:35;;;;;;;18.52;9.45;;;5.60;99.90;;;;;;5094637;28;20149;-70
2022/03/30 03:15:01;;;;;;;19.50;9.35;;;5.60;99.90;;;;;;5094117;28;20040;-69
2022/03/30 03:17:26;;;;;;;18.67;9.18;;;5.60;99.90;;;;;;5059926;28;20049;-70
2022/03/30 03:19:52;;;;;;;17.48;8.95;;;5.60;99.90;;;;;;5094066;28;20075;-70
2022/03/30 03:22:18;;;;;;;23.70;8.98;;;5.60;99.90;;;;;;5094376;28;20043;-69
2022/03/30 03:24:44;;;;;;;18.42;9.05;;;5.60;99.90;;;;;;5094354;28;20047;-69
2022/03/30 03:27:10;;;;;;;21.80;8.90;;;5.60;99.90;;;;;;5059890;28;20043;-70
2022/03/30 03:29:35;;;;;;;19.40;8.20;;;5.60;99.90;;;;;;5094270;28;20083;-69
2022/03/30 03:32:01;;;;;;;19.58;9.73;;;5.60;99.90;;;;;;5093987;28;20044;-69
2022/03/30 03:34:27;;;;;;;16.88;8.75;;;5.50;99.90;;;;;;5094122;28;20036;-69
2022/03/30 03:36:52;;;;;;;18.60;7.72;;;5.60;99.90;;;;;;5094203;28;20048;-70
2022/03/30 03:39:18;;;;;;;13.88;7.03;;;5.60;99.90;;;;;;5094156;28;20078;-69
2022/03/30 03:41:44;;;;;;;15.00;6.90;;;5.60;99.90;;;;;;5094116;28;20052;-69
2022/03/30 03:44:10;;;;;;;13.68;7.22;;;5.60;99.90;;;;;;5076431;28;20055;-69
2022/03/30 03:46:35;;;;;;;12.00;5.50;;;5.50;99.90;;;;;;5093934;28;20044;-69
2022/03/30 03:49:01;;;;;;;8.48;3.75;;;5.70;99.90;;;;;;5092531;28;20040;-69
2022/03/30 03:51:28;;;;;;;5.65;3.00;;;5.70;99.90;;;;;;5076074;28;20051;-68
2022/03/30 03:53:54;;;;;;;4.63;2.20;;;5.70;99.90;;;;;;5092677;28;20054;-69
2022/03/30 03:56:20;;;;;;;7.25;2.55;;;5.80;99.90;;;;;;5092853;28;20469;-69
2022/03/30 03:58:49;;;;;;;4.38;1.65;;;5.80;99.90;;;;;;5092604;28;20104;-68
2022/03/30 04:01:15;;;;;;;5.97;2.45;;;5.80;99.90;;;;;;5093800;28;20051;-70
2022/03/30 04:03:42;;;;;;;3.78;1.67;;;5.70;99.90;;;;;;5092296;28;20514;-69
2022/03/30 04:06:09;;;;;;;3.08;1.45;;;5.70;99.90;;;;;;5092770;28;20055;-69
2022/03/30 04:08:35;;;;;;;3.83;1.17;;;5.70;99.90;;;;;;5093686;28;20059;-70
2022/03/30 04:11:01;;;;;;;2.83;1.25;;;5.70;99.90;;;;;;5093720;28;20051;-70
2022/03/30 04:13:27;;;;;;;1.75;1.05;;;5.70;99.90;;;;;;5093671;28;20152;-70
2022/03/30 04:15:53;;;;;;;1.88;1.02;;;5.80;99.90;;;;;;5093163;28;20501;-69
2022/03/30 04:18:19;;;;;;;3.42;1.50;;;5.70;99.90;;;;;;5093887;28;20051;-70
2022/03/30 04:20:45;;;;;;;3.63;1.23;;;6.10;99.90;;;;;;5093869;28;20123;-69
2022/03/30 04:23:11;;;;;;;3.47;1.30;;;5.70;99.90;;;;;;5092580;28;20476;-69
2022/03/30 04:25:37;;;;;;;4.95;1.45;;;5.70;99.90;;;;;;5092582;28;20489;-69
2022/03/30 04:28:03;;;;;;;3.30;1.20;;;5.60;99.90;;;;;;5093545;28;20040;-70
2022/03/30 04:30:30;;;;;;;3.47;1.20;;;5.60;99.90;;;;;;5093782;28;20435;-69
2022/03/30 04:32:55;;;;;;;3.20;1.00;;;5.50;99.90;;;;;;5093467;28;20114;-69
2022/03/30 04:35:27;;;;;;;2.38;1.02;;;5.50;99.90;;;;;;5094020;28;20084;-70
2022/03/30 04:37:55;;;;;;;2.22;1.00;;;5.50;99.90;;;;;;5094300;28;20513;-69
2022/03/30 04:40:23;;;;;;;4.32;1.25;;;5.60;99.90;;;;;;5092708;28;20464;-70
2022/03/30 04:42:50;;;;;;;3.65;0.98;;;5.60;99.90;;;;;;5093433;28;20054;-70
2022/03/30 04:45:17;;;;;;;2.58;0.90;;;5.60;99.90;;;;;;5095184;28;20113;-69
2022/03/30 04:47:42;;;;;;;2.75;1.00;;;5.60;99.90;;;;;;5097433;28;20377;-69
2022/03/30 04:50:12;;;;;;;1.30;0.73;;;5.60;99.90;;;;;;5097933;28;20055;-69
2022/03/30 04:52:39;;;;;;;3.08;0.80;;;5.80;99.90;;;;;;5097554;28;20044;-70
2022/03/30 04:55:06;;;;;;;1.23;0.63;;;5.90;99.90;;;;;;5095762;28;20484;-70
2022/03/30 04:57:32;;;;;;;1.90;0.60;;;5.50;99.90;;;;;;5097782;28;20040;-68
2022/03/30 04:59:58;;;;;;;0.68;0.40;;;5.50;99.90;;;;;;5096300;28;20184;-69
2022/03/30 05:02:25;;;;;;;0.70;0.43;;;5.40;99.90;;;;;;5096994;28;20055;-69
2022/03/30 05:04:50;;;;;;;0.45;0.40;;;5.60;99.90;;;;;;5097050;28;20044;-69
2022/03/30 05:07:16;;;;;;;1.08;0.30;;;5.40;99.90;;;;;;5097289;28;20127;-69
2022/03/30 05:09:42;;;;;;;0.38;0.38;;;5.30;99.90;;;;;;5079925;28;20368;-70
2022/03/30 05:12:08;;;;;;;0.40;0.40;;;5.30;99.90;;;;;;5096669;28;20047;-69
2022/03/30 05:14:34;;;;;;;0.57;0.40;;;5.20;99.90;;;;;;5097528;28;20048;-69
2022/03/30 05:17:00;;;;;;;0.50;0.40;;;5.20;99.90;;;;;;5095623;28;20044;-70
2022/03/30 05:19:26;;;;;;;0.75;0.40;;;5.20;99.90;;;;;;5095651;28;20040;-69
2022/03/30 05:21:52;;;;;;;0.70;0.40;;;5.20;99.90;;;;;;5096437;28;20040;-69
2022/03/30 05:24:18;;;;;;;1.35;0.50;;;5.20;99.90;;;;;;5096681;28;20097;-70
2022/03/30 05:26:43;;;;;;;0.63;0.45;;;5.20;99.90;;;;;;5096580;28;20070;-69
2022/03/30 05:29:09;;;;;;;0.43;0.30;;;5.20;99.90;;;;;;5095654;28;20495;-69
2022/03/30 05:31:35;;;;;;;1.25;0.40;;;5.80;99.90;;;;;;5096864;28;20079;-70
2022/03/30 05:34:01;;;;;;;0.68;0.40;;;5.20;99.90;;;;;;5095513;28;20055;-70
2022/03/30 05:36:26;;;;;;;1.90;0.40;;;5.20;99.90;;;;;;5096495;28;20040;-70
2022/03/30 05:38:52;;;;;;;0.50;0.38;;;5.30;99.90;;;;;;5095719;28;20043;-70
2022/03/30 05:41:18;;;;;;;1.33;0.40;;;5.30;99.90;;;;;;5096037;28;20071;-69
2022/03/30 05:43:44;;;;;;;0.43;0.30;;;5.30;99.90;;;;;;5095313;28;20051;-69
2022/03/30 05:46:10;;;;;;;0.88;0.30;;;5.30;99.90;;;;;;5078389;28;20044;-70
2022/03/30 05:48:36;;;;;;;0.57;0.20;;;5.10;99.90;;;;;;5095080;28;20138;-70
2022/03/30 05:51:02;;;;;;;0.75;0.30;;;5.60;99.90;;;;;;5096169;28;20137;-70
2022/03/30 05:53:28;;;;;;;0.28;0.28;;;5.30;99.90;;;;;;5094999;28;20091;-70
2022/03/30 05:55:55;;;;;;;0.50;0.30;;;5.30;99.90;;;;;;5094178;28;20048;-70
2022/03/30 05:58:21;;;;;;;1.02;0.30;;;5.40;99.90;;;;;;5095231;28;20052;-70
2022/03/30 06:00:47;;;;;;;0.95;0.30;;;5.40;99.90;;;;;;5095130;28;20105;-70
2022/03/30 06:03:13;;;;;;;2.08;0.20;;;5.40;99.90;;;;;;5095585;28;20093;-70
2022/03/30 06:05:39;;;;;;;0.52;0.32;;;5.40;99.90;;;;;;5094710;28;20119;-70
2022/03/30 06:08:07;;;;;;;0.60;0.30;;;5.30;99.90;;;;;;5095895;28;20048;-70
2022/03/30 06:10:33;;;;;;;0.45;0.30;;;5.30;99.90;;;;;;5095839;28;20048;-70
2022/03/30 06:12:59;;;;;;;1.05;0.30;;;5.20;99.90;;;;;;5095760;28;20101;-70
2022/03/30 06:15:26;;;;;;;1.35;0.30;;;5.30;99.90;;;;;;5095671;28;20031;-70
2022/03/30 06:17:54;;;;;;;1.23;0.20;;;5.30;99.90;;;;;;5095730;28;20396;-70
2022/03/30 06:20:21;;;;;;;0.75;0.30;;;5.30;99.90;;;;;;5094408;28;20044;-70
2022/03/30 06:22:47;;;;;;;1.88;0.40;;;5.30;99.90;;;;;;5094612;28;20490;-70
2022/03/30 06:25:13;;;;;;;2.00;0.40;;;5.30;99.90;;;;;;5095515;28;20148;-70
2022/03/30 06:27:40;;;;;;;1.35;0.35;;;5.30;99.90;;;;;;5094497;28;20043;-70
2022/03/30 06:30:08;;;;;;;0.75;0.30;;;5.60;99.90;;;;;;5094466;28;20100;-70
2022/03/30 06:32:37;;;;;;;0.60;0.30;;;5.30;99.90;;;;;;5095362;28;20044;-70
2022/03/30 06:35:04;;;;;;;1.20;0.35;;;5.40;99.90;;;;;;5094212;28;20075;-70
2022/03/30 06:37:30;;;;;;;0.93;0.40;;;5.40;99.90;;;;;;5094982;28;20491;-71
2022/03/30 06:39:56;;;;;;;1.42;0.40;;;5.50;99.90;;;;;;5095306;28;20046;-70
2022/03/30 06:42:22;;;;;;;3.40;0.70;;;5.40;99.90;;;;;;5094841;28;20391;-70
2022/03/30 06:44:48;;;;;;;1.83;0.50;;;5.40;99.90;;;;;;5095075;28;20047;-69
2022/03/30 06:47:14;;;;;;;1.58;0.50;;;5.40;99.90;;;;;;5093810;28;20051;-70
2022/03/30 06:49:39;;;;;;;1.15;0.60;;;5.50;99.90;;;;;;5095034;28;20060;-70
2022/03/30 06:52:07;;;;;;;2.03;0.70;;;5.50;99.90;;;;;;5095001;28;20044;-70
2022/03/30 06:54:34;;;;;;;0.93;0.40;;;5.50;99.90;;;;;;5094404;28;20437;-70
2022/03/30 06:57:00;;;;;;;2.67;0.40;;;5.50;99.90;;;;;;5094725;28;20085;-70
2022/03/30 06:59:27;;;;;;;5.28;0.52;;;5.50;99.90;;;;;;5094894;28;20506;-70
2022/03/30 07:01:55;;;;;;;1.67;0.40;;;5.50;99.90;;;;;;5094537;28;20214;-70
2022/03/30 07:04:21;;;;;;;2.13;0.70;;;5.50;99.90;;;;;;5094064;28;20109;-71
2022/03/30 07:12:15;;;;;;;1.42;0.30;;;5.50;99.90;;;;;;5094681;28;20079;-70
2022/03/30 07:14:41;;;;;;;2.15;1.05;;;5.60;99.90;;;;;;5094083;28;20087;-70
2022/03/30 07:17:06;;;;;;;3.17;0.50;;;5.60;99.90;;;;;;5094309;28;20093;-69
2022/03/30 07:19:32;;;;;;;3.95;0.57;;;5.80;99.90;;;;;;5093253;28;20139;-70
2022/03/30 07:21:58;;;;;;;2.30;0.40;;;5.60;99.90;;;;;;5094418;28;20054;-70
2022/03/30 07:24:24;;;;;;;1.92;0.38;;;5.60;99.90;;;;;;5094160;28;20044;-69
2022/03/30 07:26:50;;;;;;;0.82;0.40;;;5.70;99.90;;;;;;5093591;28;20094;-70
2022/03/30 07:29:15;;;;;;;1.95;0.40;;;5.70;99.90;;;;;;5094548;28;20092;-70
2022/03/30 07:31:43;;;;;;;3.38;0.60;;;5.80;99.90;;;;;;5094314;28;20059;-70
2022/03/30 07:34:09;;;;;;;1.75;0.57;;;5.80;99.90;;;;;;5093415;28;20044;-71
2022/03/30 07:36:35;;;;;;;2.38;0.50;;;5.90;99.90;;;;;;5094080;28;20476;-71
2022/03/30 07:39:00;;;;;;;3.42;0.50;;;5.90;99.90;;;;;;5094373;28;20040;-71
2022/03/30 07:41:26;;;;;;;1.88;0.40;;;6.00;99.90;;;;;;5093366;28;20081;-70
2022/03/30 07:43:52;;;;;;;2.63;0.50;;;6.00;99.90;;;;;;5094292;28;20044;-71
2022/03/30 07:46:18;;;;;;;1.80;0.50;;;6.10;99.90;;;;;;5093181;28;20040;-71
2022/03/30 07:48:44;;;;;;;4.07;0.40;;;6.10;99.90;;;;;;5094447;28;20130;-71
2022/03/30 07:51:10;;;;;;;0.73;0.40;;;6.10;99.90;;;;;;5094184;28;20544;-70
2022/03/30 07:53:35;;;;;;;1.30;0.40;;;6.20;99.90;;;;;;5093174;28;20044;-70
2022/03/30 07:56:01;;;;;;;4.18;0.57;;;6.10;99.90;;;;;;5092857;28;20036;-70
2022/03/30 07:58:27;;;;;;;2.90;0.70;;;6.30;99.90;;;;;;5093089;28;20357;-71
2022/03/30 08:00:53;;;;;;;2.58;0.45;;;6.30;99.90;;;;;;5094022;28;20101;-70
2022/03/30 08:03:19;;;;;;;2.17;0.40;;;6.30;99.90;;;;;;5092678;28;20442;-70
2022/03/30 08:05:44;;;;;;;1.98;0.30;;;6.40;99.90;;;;;;5093995;28;20044;-71
2022/03/30 08:08:10;;;;;;;1.40;0.73;;;6.40;99.90;;;;;;5094180;28;20472;-70
2022/03/30 08:10:37;;;;;;;1.88;0.50;;;6.40;99.90;;;;;;5076352;28;20471;-71
2022/03/30 08:13:04;;;;;;;2.10;0.73;;;6.40;99.90;;;;;;5092618;28;20507;-71
2022/03/30 08:15:31;;;;;;;3.25;0.50;;;6.50;99.90;;;;;;5092320;28;20083;-71
2022/03/30 08:17:57;;;;;;;3.90;0.57;;;6.50;99.90;;;;;;5093785;28;20048;-70
2022/03/30 08:23:08;;;;;;;2.05;0.50;;;6.50;99.90;;;;;;5093843;28;20083;-69
2022/03/30 08:25:35;;;;;;;3.03;0.70;;;6.50;99.90;;;;;;5092768;28;20048;-70
2022/03/30 08:28:02;;;;;;;2.72;0.60;;;6.60;99.90;;;;;;5075967;28;20080;-69
2022/03/30 08:30:28;;;;;;;2.95;0.70;;;6.50;99.90;;;;;;5092571;28;20051;-70
2022/03/30 08:32:54;;;;;;;4.03;0.88;;;6.60;99.90;;;;;;5076737;28;20419;-70
2022/03/30 08:35:22;;;;;;;1.60;0.60;;;6.60;99.90;;;;;;5093546;28;20101;-70
2022/03/30 08:37:49;;;;;;;3.33;0.75;;;6.60;99.90;;;;;;5093614;28;20048;-70
2022/03/30 08:40:14;;;;;;;2.42;0.60;;;6.70;99.90;;;;;;5075846;28;20040;-70
2022/03/30 08:42:41;;;;;;;1.58;0.70;;;7.00;99.90;;;;;;5093592;28;20044;-70
2022/03/30 08:45:08;;;;;;;0.60;0.40;;;6.70;99.90;;;;;;5093387;28;20079;-69
2022/03/30 08:47:35;;;;;;;2.80;0.75;;;6.60;99.90;;;;;;5093391;28;20458;-71
2022/03/30 08:50:03;;;;;;;5.25;0.70;;;6.60;99.90;;;;;;5093506;28;20040;-71
2022/03/30 08:52:29;;;;;;;2.80;0.60;;;6.50;99.90;;;;;;5093538;28;20074;-70
2022/03/30 08:54:59;;;;;;;2.40;0.50;;;6.40;99.90;;;;;;5075390;28;20044;-70
2022/03/30 08:57:26;;;;;;;1.35;0.80;;;6.30;99.90;;;;;;5075200;28;20070;-69
2022/03/30 09:00:00;;;;;;;2.08;0.47;;;6.20;99.90;;;;;;5092740;28;20048;-69
2022/03/30 09:02:46;;;;;;;0.88;0.40;;;6.20;99.90;;;;;;5092851;28;20102;-69
2022/03/30 09:05:14;;;;;;;2.25;0.43;;;6.20;99.90;;;;;;5093116;28;20115;-69
2022/03/30 09:07:42;;;;;;;2.00;0.55;;;6.20;99.90;;;;;;5092407;28;20459;-70
2022/03/30 09:10:33;;;;;;;2.35;0.40;;;6.20;99.90;;;;;;5092849;28;20044;-68
2022/03/30 09:12:59;;;;;;;2.75;0.98;;;6.30;99.90;;;;;;5092529;28;20071;-69
2022/03/30 09:15:25;;;;;;;1.25;0.30;;;6.30;99.90;;;;;;5092254;28;20051;-70
2022/03/30 09:18:00;;;;;;;3.53;0.70;;;6.40;99.90;;;;;;5074944;28;20052;-69
2022/03/30 09:20:26;;;;;;;3.58;0.40;;;6.50;99.90;;;;;;5093438;28;20036;-69
2022/03/30 09:22:57;;;;;;;3.78;0.40;;;6.50;99.90;;;;;;5092076;28;20472;-70
2022/03/30 09:25:25;;;;;;;1.77;0.30;;;6.60;99.90;;;;;;5091969;28;20048;-69
2022/03/30 09:27:53;;;;;;;0.47;0.40;;;6.70;99.90;;;;;;5091447;28;20059;-70
2022/03/30 09:30:21;;;;;;;1.40;0.40;;;6.80;99.90;;;;;;5092867;28;20453;-69
2022/03/30 09:32:49;;;;;;;2.03;0.50;;;6.80;99.90;;;;;;5095617;28;20036;-70
2022/03/30 09:35:25;;;;;;;1.23;0.50;;;7.00;99.90;;;;;;5096656;28;20495;-69
2022/03/30 09:38:03;;;;;;;2.25;0.60;;;6.80;99.90;;;;;;5096267;28;20050;-69
2022/03/30 09:40:38;;;;;;;2.90;0.70;;;6.80;99.90;;;;;;5095560;28;20056;-71
2022/03/30 09:43:16;;;;;;;1.33;0.95;;;6.80;99.90;;;;;;5095765;28;20047;-69
2022/03/30 09:45:42;;;;;;;4.25;0.60;;;6.80;99.90;;;;;;5095823;28;20048;-70
2022/03/30 09:48:14;;;;;;;1.85;0.40;;;6.80;99.90;;;;;;5095928;28;20044;-68
2022/03/30 09:50:45;;;;;;;4.07;0.60;;;6.80;99.90;;;;;;5093850;28;20048;-70
2022/03/30 09:53:13;;;;;;;3.28;0.60;;;6.80;99.90;;;;;;5094435;28;20127;-69
2022/03/30 09:56:28;;;;;;;1.70;0.50;;;6.90;99.90;;;;;;5094486;28;20040;-67
2022/03/30 09:59:01;;;;;;;1.25;0.75;;;6.90;99.90;;;;;;5081485;28;20095;-70
2022/03/30 10:01:32;;;;;;;1.15;0.50;;;6.90;99.90;;;;;;5095833;28;20044;-70
2022/03/30 10:04:00;;;;;;;0.70;0.50;;;7.00;99.90;;;;;;5094213;28;20100;-69
2022/03/30 10:06:28;;;;;;;1.98;0.52;;;7.00;99.90;;;;;;5094059;28;20047;-68
2022/03/30 10:08:55;;;;;;;1.02;0.50;;;7.10;99.90;;;;;;5094387;28;20060;-70
2022/03/30 10:11:23;;;;;;;1.00;0.40;;;7.20;99.90;;;;;;5077827;28;20054;-69
2022/03/30 10:13:51;;;;;;;2.05;0.40;;;7.20;99.90;;;;;;5094008;28;20044;-70
2022/03/30 10:16:21;;;;;;;2.88;0.50;;;7.20;99.90;;;;;;5095668;28;20044;-68
2022/03/30 10:18:51;;;;;;;0.90;0.40;;;7.20;99.90;;;;;;5095126;28;20048;-70
2022/03/30 10:21:46;;;;;;;0.73;0.40;;;7.30;99.90;;;;;;5094897;28;20040;-70
2022/03/30 10:24:41;;;;;;;3.42;0.70;;;7.20;99.90;;;;;;5094911;28;20055;-68
2022/03/30 10:27:33;;;;;;;2.60;0.40;;;7.20;99.90;;;;;;5040516;28;20409;-70
2022/03/30 10:30:03;;;;;;;1.95;0.40;;;7.20;99.90;;;;;;5063106;28;20047;-69
2022/03/30 10:32:36;;;;;;;0.95;0.43;;;7.20;99.90;;;;;;5094081;28;20476;-71
2022/03/30 10:35:13;;;;;;;2.28;0.40;;;7.20;99.90;;;;;;5095526;28;20155;-70
2022/03/30 10:37:40;;;;;;;0.90;0.30;;;7.20;99.90;;;;;;5093582;28;20094;-69
2022/03/30 10:40:08;;;;;;;1.85;0.40;;;7.30;99.90;;;;;;5093133;28;20131;-69
2022/03/30 10:42:46;;;;;;;1.27;0.30;;;7.20;99.90;;;;;;5092956;28;20054;-69
2022/03/30 10:45:31;;;;;;;0.52;0.32;;;7.30;99.90;;;;;;5095311;28;20063;-68
2022/03/30 10:48:10;;;;;;;0.85;0.50;;;7.30;99.90;;;;;;5093283;28;20059;-69
2022/03/30 10:50:41;;;;;;;2.45;0.40;;;7.30;99.90;;;;;;5093728;28;20424;-69
2022/03/30 10:53:31;;;;;;;1.88;0.40;;;7.30;99.90;;;;;;5093887;28;20139;-70
2022/03/30 10:56:15;;;;;;;1.67;0.47;;;7.30;99.90;;;;;;5094314;28;20040;-69
2022/03/30 10:58:59;;;;;;;2.53;0.50;;;7.40;99.90;;;;;;5093105;28;20488;-69
2022/03/30 11:01:31;;;;;;;1.23;0.30;;;7.40;99.90;;;;;;5095102;28;20087;-69
2022/03/30 11:04:03;;;;;;;1.05;0.35;;;7.50;99.90;;;;;;5075666;28;20143;-69
2022/03/30 11:06:36;;;;;;;1.52;0.40;;;7.60;99.90;;;;;;5094374;28;20062;-68
2022/03/30 11:09:28;;;;;;;3.20;0.60;;;7.60;99.90;;;;;;5093283;28;20047;-69
2022/03/30 11:12:14;;;;;;;1.15;0.40;;;7.60;99.90;;;;;;5093864;28;20047;-68
2022/03/30 11:14:46;;;;;;;2.13;0.70;;;7.60;99.90;;;;;;5094594;28;20137;-69
2022/03/30 11:17:30;;;;;;;1.70;0.47;;;7.70;99.90;;;;;;5093340;28;20036;-69
2022/03/30 11:19:57;;;;;;;2.90;0.50;;;7.70;99.90;;;;;;5094426;28;20046;-70
2022/03/30 11:22:24;;;;;;;2.60;0.50;;;7.80;99.90;;;;;;5094633;28;20104;-69
2022/03/30 11:25:09;;;;;;;1.02;0.45;;;7.80;99.90;;;;;;5095222;28;20362;-70
2022/03/30 11:27:35;;;;;;;1.98;0.47;;;7.90;99.90;;;;;;5094540;28;20040;-69
2022/03/30 11:30:05;;;;;;;1.38;0.40;;;7.90;99.90;;;;;;5094199;28;20500;-71
2022/03/30 11:32:53;;;;;;;1.75;0.40;;;8.00;99.90;;;;;;5094478;28;20091;-70
2022/03/30 11:35:21;;;;;;;2.20;0.60;;;8.00;99.90;;;;;;5093186;28;20059;-70
2022/03/30 11:37:58;;;;;;;1.60;0.40;;;8.00;99.90;;;;;;5094434;28;20131;-70
2022/03/30 11:40:25;;;;;;;1.10;0.45;;;7.90;99.90;;;;;;5093712;28;20055;-70
2022/03/30 11:42:53;;;;;;;2.80;0.47;;;7.90;99.90;;;;;;5093164;28;20048;-70
2022/03/30 11:45:21;;;;;;;3.00;0.55;;;7.90;99.90;;;;;;5093529;28;20139;-70
2022/03/30 11:48:03;;;;;;;1.50;0.40;;;7.90;99.90;;;;;;5094174;28;20180;-70
2022/03/30 11:50:50;;;;;;;0.70;0.32;;;7.90;99.90;;;;;;5093389;28;20491;-70
2022/03/30 11:53:25;;;;;;;1.85;0.30;;;7.80;99.90;;;;;;5094095;28;20054;-70
2022/03/30 11:55:55;;;;;;;0.75;0.43;;;7.80;99.90;;;;;;5092594;28;20097;-70
2022/03/30 11:58:23;;;;;;;1.85;0.68;;;7.80;99.90;;;;;;5094079;28;20043;-70
2022/03/30 12:00:49;;;;;;;1.23;0.30;;;7.80;99.90;;;;;;5094093;28;20044;-69
2022/03/30 12:03:15;;;;;;;1.38;0.43;;;7.70;99.90;;;;;;5093859;28;20055;-70
2022/03/30 12:05:41;;;;;;;1.77;0.40;;;7.90;99.90;;;;;;5093091;28;20160;-70
2022/03/30 12:08:07;;;;;;;1.65;0.30;;;7.80;99.90;;;;;;5092814;28;20476;-69
2022/03/30 12:10:32;;;;;;;1.02;0.30;;;7.80;99.90;;;;;;5094188;28;20043;-70
2022/03/30 12:12:59;;;;;;;2.28;0.30;;;7.90;99.90;;;;;;5093581;28;20400;-69
2022/03/30 12:15:26;;;;;;;1.80;0.30;;;7.90;99.90;;;;;;5092700;28;20044;-69
2022/03/30 12:17:57;;;;;;;2.47;0.40;;;7.90;99.90;;;;;;5093449;28;20506;-69
2022/03/30 12:20:32;;;;;;;1.48;0.30;;;8.00;99.90;;;;;;5092810;28;20055;-69
2022/03/30 12:23:06;;;;;;;2.33;0.40;;;7.90;99.90;;;;;;5094090;28;20468;-69
2022/03/30 12:25:37;;;;;;;2.85;0.40;;;7.90;99.90;;;;;;5076239;28;20186;-69
2022/03/30 12:28:04;;;;;;;2.10;0.40;;;8.00;99.90;;;;;;5093716;28;20048;-69
2022/03/30 12:30:34;;;;;;;1.20;0.30;;;8.10;99.90;;;;;;5093716;28;20134;-69
2022/03/30 12:33:00;;;;;;;1.40;0.30;;;8.10;99.90;;;;;;5092461;28;20040;-70
2022/03/30 12:35:37;;;;;;;1.08;0.52;;;8.10;99.90;;;;;;5075595;28;20047;-69
2022/03/30 12:38:14;;;;;;;1.67;0.40;;;8.00;99.90;;;;;;5093555;28;20098;-69
2022/03/30 12:40:43;;;;;;;1.55;0.40;;;8.00;99.90;;;;;;5093974;28;20084;-69
2022/03/30 12:43:09;;;;;;;3.28;0.50;;;7.90;99.90;;;;;;5093603;28;20055;-69
2022/03/30 12:45:54;;;;;;;4.13;0.60;;;7.90;99.90;;;;;;5093314;28;20052;-69
2022/03/30 12:48:34;;;;;;;1.08;0.45;;;7.90;99.90;;;;;;5094144;28;20066;-69
2022/03/30 12:51:02;;;;;;;1.15;0.50;;;7.90;99.90;;;;;;5093878;28;20396;-69
2022/03/30 12:53:34;;;;;;;2.80;0.50;;;7.80;99.90;;;;;;5076219;28;20421;-69
2022/03/30 12:56:12;;;;;;;1.88;0.50;;;7.80;99.90;;;;;;5093422;28;20109;-69
2022/03/30 12:59:00;;;;;;;0.98;0.30;;;7.80;99.90;;;;;;5093329;28;20130;-69
2022/03/30 13:01:34;;;;;;;1.30;0.38;;;7.80;99.90;;;;;;5092429;28;20161;-69
2022/03/30 13:04:00;;;;;;;2.10;0.50;;;7.80;99.90;;;;;;5093677;28;20066;-69
2022/03/30 13:06:27;;;;;;;2.15;0.40;;;7.90;99.90;;;;;;5094862;28;20529;-69
2022/03/30 13:09:18;;;;;;;2.65;0.32;;;7.90;99.90;;;;;;5097261;28;20472;-69
2022/03/30 13:11:49;;;;;;;4.82;1.50;;;7.90;99.90;;;;;;5096121;28;20044;-69
2022/03/30 13:14:17;;;;;;;1.50;0.30;;;7.90;99.90;;;;;;5097999;28;20051;-69
2022/03/30 13:16:52;;;;;;;1.60;0.40;;;7.80;99.90;;;;;;5096999;28;20043;-70